sensor_id;sensor_type;location;lat;lon;timestamp;pressure;altitude;pressure_sealevel;temperature;humidity
74778;BME280;63298;53.164;8.610;2023-05-07T00:01:44;102105.97;;;12.27;71.93
74778;BME280;63298;53.164;8.610;2023-05-07T00:04:10;102102.53;;;12.25;71.86
74778;BME280;63298;53.164;8.610;2023-05-07T00:06:35;102107.66;;;12.22;71.53
74778;BME280;63298;53.164;8.610;2023-05-07T00:09:00;102106.41;;;12.11;71.85
74778;BME280;63298;53.164;8.610;2023-05-07T00:11:27;102109.38;;;12.16;72.06
74778;BME280;63298;53.164;8.610;2023-05-07T00:13:52;102100.22;;;12.16;71.90
74778;BME280;63298;53.164;8.610;2023-05-07T00:16:17;102100.44;;;12.14;71.74
74778;BME280;63298;53.164;8.610;2023-05-07T00:18:43;102101.53;;;12.13;71.91
74778;BME280;63298;53.164;8.610;2023-05-07T00:21:08;102090.91;;;12.03;72.11
74778;BME280;63298;53.164;8.610;2023-05-07T00:23:33;102099.41;;;12.02;72.18
74778;BME280;63298;53.164;8.610;2023-05-07T00:25:59;102096.00;;;12.00;72.43
74778;BME280;63298;53.164;8.610;2023-05-07T00:28:24;102104.75;;;12.03;72.07
74778;BME280;63298;53.164;8.610;2023-05-07T00:30:49;102095.78;;;12.08;71.88
74778;BME280;63298;53.164;8.610;2023-05-07T00:33:15;102096.00;;;12.13;71.66
74778;BME280;63298;53.164;8.610;2023-05-07T00:35:41;102102.59;;;12.12;72.12
74778;BME280;63298;53.164;8.610;2023-05-07T00:38:07;102103.00;;;12.16;71.58
74778;BME280;63298;53.164;8.610;2023-05-07T00:40:32;102098.75;;;12.13;71.54
74778;BME280;63298;53.164;8.610;2023-05-07T00:42:57;102094.91;;;12.14;71.83
74778;BME280;63298;53.164;8.610;2023-05-07T00:45:26;102095.34;;;12.11;72.00
74778;BME280;63298;53.164;8.610;2023-05-07T00:47:55;102094.94;;;12.07;71.53
74778;BME280;63298;53.164;8.610;2023-05-07T00:50:20;102099.63;;;12.07;72.02
74778;BME280;63298;53.164;8.610;2023-05-07T00:52:45;102101.94;;;12.10;71.93
74778;BME280;63298;53.164;8.610;2023-05-07T00:55:11;102100.69;;;12.06;72.24
74778;BME280;63298;53.164;8.610;2023-05-07T00:57:36;102101.75;;;12.05;71.75
74778;BME280;63298;53.164;8.610;2023-05-07T01:00:04;102108.53;;;12.09;72.08
74778;BME280;63298;53.164;8.610;2023-05-07T01:02:29;102109.84;;;12.13;71.69
74778;BME280;63298;53.164;8.610;2023-05-07T01:04:55;102101.09;;;12.09;71.75
74778;BME280;63298;53.164;8.610;2023-05-07T01:07:21;102102.78;;;12.10;71.73
74778;BME280;63298;53.164;8.610;2023-05-07T01:09:47;102093.44;;;12.05;71.91
74778;BME280;63298;53.164;8.610;2023-05-07T01:12:12;102099.41;;;12.08;71.79
74778;BME280;63298;53.164;8.610;2023-05-07T01:14:38;102100.03;;;12.04;72.17
74778;BME280;63298;53.164;8.610;2023-05-07T01:17:03;102102.19;;;12.02;71.68
74778;BME280;63298;53.164;8.610;2023-05-07T01:19:29;102102.84;;;11.97;71.83
74778;BME280;63298;53.164;8.610;2023-05-07T01:22:01;102094.75;;;11.96;72.16
74778;BME280;63298;53.164;8.610;2023-05-07T01:24:26;102101.56;;;11.93;72.14
74778;BME280;63298;53.164;8.610;2023-05-07T01:26:52;102091.78;;;11.91;71.97
74778;BME280;63298;53.164;8.610;2023-05-07T01:29:17;102099.84;;;11.99;72.02
74778;BME280;63298;53.164;8.610;2023-05-07T01:31:43;102091.97;;;11.96;71.97
74778;BME280;63298;53.164;8.610;2023-05-07T01:34:09;102097.09;;;11.86;71.78
74778;BME280;63298;53.164;8.610;2023-05-07T01:36:38;102105.19;;;11.81;72.00
74778;BME280;63298;53.164;8.610;2023-05-07T01:39:05;102092.84;;;11.77;72.04
74778;BME280;63298;53.164;8.610;2023-05-07T01:41:31;102102.22;;;11.76;72.45
74778;BME280;63298;53.164;8.610;2023-05-07T01:43:58;102102.19;;;11.69;72.62
74778;BME280;63298;53.164;8.610;2023-05-07T01:46:24;102099.84;;;11.66;72.74
74778;BME280;63298;53.164;8.610;2023-05-07T01:48:51;102104.31;;;11.60;72.45
74778;BME280;63298;53.164;8.610;2023-05-07T01:51:16;102106.00;;;11.55;72.92
74778;BME280;63298;53.164;8.610;2023-05-07T01:53:42;102107.31;;;11.59;72.23
74778;BME280;63298;53.164;8.610;2023-05-07T01:56:07;102108.56;;;11.56;73.13
74778;BME280;63298;53.164;8.610;2023-05-07T01:58:33;102124.50;;;11.48;73.55
74778;BME280;63298;53.164;8.610;2023-05-07T02:00:58;102111.75;;;11.47;73.84
74778;BME280;63298;53.164;8.610;2023-05-07T02:03:23;102109.44;;;11.44;73.31
74778;BME280;63298;53.164;8.610;2023-05-07T02:05:48;102122.38;;;11.50;73.21
74778;BME280;63298;53.164;8.610;2023-05-07T02:08:14;102111.53;;;11.42;72.98
74778;BME280;63298;53.164;8.610;2023-05-07T02:10:39;102116.63;;;11.45;73.06
74778;BME280;63298;53.164;8.610;2023-05-07T02:13:04;102123.03;;;11.39;73.40
74778;BME280;63298;53.164;8.610;2023-05-07T02:15:30;102117.50;;;11.39;73.28
74778;BME280;63298;53.164;8.610;2023-05-07T02:18:03;102124.06;;;11.38;72.96
74778;BME280;63298;53.164;8.610;2023-05-07T02:20:29;102115.59;;;11.39;72.43
74778;BME280;63298;53.164;8.610;2023-05-07T02:22:54;102116.22;;;11.41;72.78
74778;BME280;63298;53.164;8.610;2023-05-07T02:25:19;102121.09;;;11.46;73.38
74778;BME280;63298;53.164;8.610;2023-05-07T02:27:45;102131.72;;;11.42;72.83
74778;BME280;63298;53.164;8.610;2023-05-07T02:30:10;102126.84;;;11.44;73.17
74778;BME280;63298;53.164;8.610;2023-05-07T02:32:36;102120.91;;;11.47;72.65
74778;BME280;63298;53.164;8.610;2023-05-07T02:35:03;102109.44;;;11.44;73.09
74778;BME280;63298;53.164;8.610;2023-05-07T02:37:28;102116.41;;;11.40;73.04
74778;BME280;63298;53.164;8.610;2023-05-07T02:39:54;102110.47;;;11.36;72.79
74778;BME280;63298;53.164;8.610;2023-05-07T02:42:19;102133.84;;;11.40;72.46
74778;BME280;63298;53.164;8.610;2023-05-07T02:44:44;102138.09;;;11.30;73.24
74778;BME280;63298;53.164;8.610;2023-05-07T02:47:10;102134.50;;;11.29;73.25
74778;BME280;63298;53.164;8.610;2023-05-07T02:49:35;102134.47;;;11.22;73.13
74778;BME280;63298;53.164;8.610;2023-05-07T02:52:00;102136.78;;;11.25;72.86
74778;BME280;63298;53.164;8.610;2023-05-07T02:54:26;102138.28;;;11.21;73.63
74778;BME280;63298;53.164;8.610;2023-05-07T02:56:51;102147.44;;;11.22;73.36
74778;BME280;63298;53.164;8.610;2023-05-07T02:59:17;102142.09;;;11.20;72.99
74778;BME280;63298;53.164;8.610;2023-05-07T03:01:42;102143.81;;;11.21;73.17
74778;BME280;63298;53.164;8.610;2023-05-07T03:04:07;102140.19;;;11.21;73.63
74778;BME280;63298;53.164;8.610;2023-05-07T03:06:33;102138.28;;;11.21;73.61
74778;BME280;63298;53.164;8.610;2023-05-07T03:08:59;102147.44;;;11.22;73.51
74778;BME280;63298;53.164;8.610;2023-05-07T03:11:24;102148.28;;;11.22;73.23
74778;BME280;63298;53.164;8.610;2023-05-07T03:13:50;102148.28;;;11.22;72.79
74778;BME280;63298;53.164;8.610;2023-05-07T03:16:15;102148.47;;;11.21;72.87
74778;BME280;63298;53.164;8.610;2023-05-07T03:18:40;102151.47;;;11.19;73.38
74778;BME280;63298;53.164;8.610;2023-05-07T03:21:06;102153.16;;;11.14;72.75
74778;BME280;63298;53.164;8.610;2023-05-07T03:23:31;102143.59;;;11.10;72.95
74778;BME280;63298;53.164;8.610;2023-05-07T03:25:56;102145.06;;;11.12;73.41
74778;BME280;63298;53.164;8.610;2023-05-07T03:28:22;102129.75;;;11.03;72.76
74778;BME280;63298;53.164;8.610;2023-05-07T03:30:47;102136.78;;;11.12;73.38
74778;BME280;63298;53.164;8.610;2023-05-07T03:33:12;102143.19;;;11.19;73.13
74778;BME280;63298;53.164;8.610;2023-05-07T03:35:38;102135.94;;;11.18;73.29
74778;BME280;63298;53.164;8.610;2023-05-07T03:38:03;102136.81;;;11.19;73.06
74778;BME280;63298;53.164;8.610;2023-05-07T03:40:28;102136.56;;;11.20;72.88
74778;BME280;63298;53.164;8.610;2023-05-07T03:42:54;102136.38;;;11.22;73.63
74778;BME280;63298;53.164;8.610;2023-05-07T03:45:19;102128.06;;;11.15;73.61
74778;BME280;63298;53.164;8.610;2023-05-07T03:47:44;102127.88;;;11.17;73.50
74778;BME280;63298;53.164;8.610;2023-05-07T03:50:10;102129.78;;;11.10;73.82
74778;BME280;63298;53.164;8.610;2023-05-07T03:52:35;102129.13;;;11.08;73.06
74778;BME280;63298;53.164;8.610;2023-05-07T03:55:01;102128.28;;;11.07;73.72
74778;BME280;63298;53.164;8.610;2023-05-07T03:57:26;102134.66;;;11.08;73.82
74778;BME280;63298;53.164;8.610;2023-05-07T03:59:51;102136.34;;;11.09;73.38
74778;BME280;63298;53.164;8.610;2023-05-07T04:02:17;102142.72;;;11.09;73.60
74778;BME280;63298;53.164;8.610;2023-05-07T04:04:42;102143.34;;;11.11;73.11
74778;BME280;63298;53.164;8.610;2023-05-07T04:07:07;102144.88;;;11.14;73.65
74778;BME280;63298;53.164;8.610;2023-05-07T04:09:32;102134.22;;;11.11;72.99
74778;BME280;63298;53.164;8.610;2023-05-07T04:11:58;102139.50;;;11.06;73.66
74778;BME280;63298;53.164;8.610;2023-05-07T04:14:23;102148.03;;;11.04;73.93
74778;BME280;63298;53.164;8.610;2023-05-07T04:16:48;102151.41;;;11.06;74.24
74778;BME280;63298;53.164;8.610;2023-05-07T04:19:14;102144.41;;;11.04;73.83
74778;BME280;63298;53.164;8.610;2023-05-07T04:21:39;102134.41;;;11.03;74.20
74778;BME280;63298;53.164;8.610;2023-05-07T04:24:04;102146.13;;;11.05;73.22
74778;BME280;63298;53.164;8.610;2023-05-07T04:26:31;102150.16;;;11.09;73.94
74778;BME280;63298;53.164;8.610;2023-05-07T04:28:56;102145.03;;;11.06;73.63
74778;BME280;63298;53.164;8.610;2023-05-07T04:31:22;102146.56;;;11.08;74.18
74778;BME280;63298;53.164;8.610;2023-05-07T04:33:47;102156.53;;;11.09;73.40
74778;BME280;63298;53.164;8.610;2023-05-07T04:36:12;102153.56;;;11.04;74.38
74778;BME280;63298;53.164;8.610;2023-05-07T04:38:37;102151.84;;;11.03;74.05
74778;BME280;63298;53.164;8.610;2023-05-07T04:41:04;102151.84;;;11.03;73.48
74778;BME280;63298;53.164;8.610;2023-05-07T04:43:29;102147.38;;;11.02;73.67
74778;BME280;63298;53.164;8.610;2023-05-07T04:45:55;102153.97;;;11.08;73.84
74778;BME280;63298;53.164;8.610;2023-05-07T04:48:20;102149.09;;;11.10;73.41
74778;BME280;63298;53.164;8.610;2023-05-07T04:50:50;102140.16;;;11.08;74.13
74778;BME280;63298;53.164;8.610;2023-05-07T04:53:16;102157.16;;;11.11;74.02
74778;BME280;63298;53.164;8.610;2023-05-07T04:55:41;102163.53;;;11.12;73.91
74778;BME280;63298;53.164;8.610;2023-05-07T04:58:07;102155.03;;;11.07;73.62
74778;BME280;63298;53.164;8.610;2023-05-07T05:00:32;102164.19;;;11.14;73.54
74778;BME280;63298;53.164;8.610;2023-05-07T05:02:58;102161.44;;;11.14;73.21
74778;BME280;63298;53.164;8.610;2023-05-07T05:05:23;102168.44;;;11.16;73.96
74778;BME280;63298;53.164;8.610;2023-05-07T05:07:48;102167.63;;;11.22;73.73
74778;BME280;63298;53.164;8.610;2023-05-07T05:10:14;102164.84;;;11.22;73.02
74778;BME280;63298;53.164;8.610;2023-05-07T05:12:39;102160.81;;;11.25;73.67
74778;BME280;63298;53.164;8.610;2023-05-07T05:15:05;102168.03;;;11.26;73.14
74778;BME280;63298;53.164;8.610;2023-05-07T05:17:30;102166.31;;;11.25;73.28
74778;BME280;63298;53.164;8.610;2023-05-07T05:19:56;102173.56;;;11.26;73.14
74778;BME280;63298;53.164;8.610;2023-05-07T05:22:21;102160.19;;;11.30;73.71
74778;BME280;63298;53.164;8.610;2023-05-07T05:24:46;102170.16;;;11.31;73.21
74778;BME280;63298;53.164;8.610;2023-05-07T05:27:12;102177.81;;;11.35;73.16
74778;BME280;63298;53.164;8.610;2023-05-07T05:29:37;102171.66;;;11.40;73.00
74778;BME280;63298;53.164;8.610;2023-05-07T05:32:02;102175.28;;;11.40;73.57
74778;BME280;63298;53.164;8.610;2023-05-07T05:34:27;102180.38;;;11.37;73.05
74778;BME280;63298;53.164;8.610;2023-05-07T05:36:53;102178.91;;;11.41;73.12
74778;BME280;63298;53.164;8.610;2023-05-07T05:39:18;102173.19;;;11.42;73.46
74778;BME280;63298;53.164;8.610;2023-05-07T05:41:43;102174.44;;;11.40;73.02
74778;BME280;63298;53.164;8.610;2023-05-07T05:44:08;102178.06;;;11.40;72.83
74778;BME280;63298;53.164;8.610;2023-05-07T05:46:34;102175.28;;;11.40;72.84
74778;BME280;63298;53.164;8.610;2023-05-07T05:48:59;102185.06;;;11.36;73.02
74778;BME280;63298;53.164;8.610;2023-05-07T05:51:25;102181.88;;;11.33;73.33
74778;BME280;63298;53.164;8.610;2023-05-07T05:53:50;102180.38;;;11.37;73.38
74778;BME280;63298;53.164;8.610;2023-05-07T05:56:16;102187.44;;;11.39;73.56
74778;BME280;63298;53.164;8.610;2023-05-07T05:58:41;102187.41;;;11.33;73.85
74778;BME280;63298;53.164;8.610;2023-05-07T06:01:07;102187.44;;;11.39;72.77
74778;BME280;63298;53.164;8.610;2023-05-07T06:03:32;102188.88;;;11.35;72.98
74778;BME280;63298;53.164;8.610;2023-05-07T06:05:58;102187.19;;;11.41;72.75
74778;BME280;63298;53.164;8.610;2023-05-07T06:08:23;102199.09;;;11.41;72.62
74778;BME280;63298;53.164;8.610;2023-05-07T06:10:48;102196.34;;;11.41;73.14
74778;BME280;63298;53.164;8.610;2023-05-07T06:13:14;102204.81;;;11.40;72.88
74778;BME280;63298;53.164;8.610;2023-05-07T06:15:39;102202.09;;;11.46;73.17
74778;BME280;63298;53.164;8.610;2023-05-07T06:18:04;102204.44;;;11.49;73.03
74778;BME280;63298;53.164;8.610;2023-05-07T06:20:30;102193.78;;;11.46;72.28
74778;BME280;63298;53.164;8.610;2023-05-07T06:22:55;102198.03;;;11.42;72.66
74778;BME280;63298;53.164;8.610;2023-05-07T06:25:20;102202.75;;;11.48;72.27
74778;BME280;63298;53.164;8.610;2023-05-07T06:27:45;102199.97;;;11.48;72.19
74778;BME280;63298;53.164;8.610;2023-05-07T06:30:11;102195.31;;;11.49;72.59
74778;BME280;63298;53.164;8.610;2023-05-07T06:32:36;102203.78;;;11.47;72.51
74778;BME280;63298;53.164;8.610;2023-05-07T06:35:02;102196.56;;;11.46;72.25
74778;BME280;63298;53.164;8.610;2023-05-07T06:37:27;102195.94;;;11.44;71.86
74778;BME280;63298;53.164;8.610;2023-05-07T06:39:52;102209.75;;;11.51;72.09
74778;BME280;63298;53.164;8.610;2023-05-07T06:42:18;102205.72;;;11.53;72.28
74778;BME280;63298;53.164;8.610;2023-05-07T06:44:43;102197.63;;;11.52;71.73
74778;BME280;63298;53.164;8.610;2023-05-07T06:47:08;102209.56;;;11.59;71.77
74778;BME280;63298;53.164;8.610;2023-05-07T06:49:34;102203.81;;;11.60;71.42
74778;BME280;63298;53.164;8.610;2023-05-07T06:51:59;102208.47;;;11.60;71.29
74778;BME280;63298;53.164;8.610;2023-05-07T06:54:24;102206.56;;;11.60;71.01
74778;BME280;63298;53.164;8.610;2023-05-07T06:56:50;102199.56;;;11.64;70.70
74778;BME280;63298;53.164;8.610;2023-05-07T06:59:15;102204.03;;;11.59;71.02
74778;BME280;63298;53.164;8.610;2023-05-07T07:01:41;102191.69;;;11.61;70.70
74778;BME280;63298;53.164;8.610;2023-05-07T07:04:06;102196.16;;;11.62;70.86
74778;BME280;63298;53.164;8.610;2023-05-07T07:06:31;102203.41;;;11.63;71.07
74778;BME280;63298;53.164;8.610;2023-05-07T07:08:58;102208.28;;;11.61;71.08
74778;BME280;63298;53.164;8.610;2023-05-07T07:11:23;102210.22;;;11.67;70.98
74778;BME280;63298;53.164;8.610;2023-05-07T07:13:49;102214.22;;;11.65;71.32
74778;BME280;63298;53.164;8.610;2023-05-07T07:16:14;102208.94;;;11.63;70.43
74778;BME280;63298;53.164;8.610;2023-05-07T07:18:39;102203.63;;;11.68;70.64
74778;BME280;63298;53.164;8.610;2023-05-07T07:21:05;102212.78;;;11.76;70.78
74778;BME280;63298;53.164;8.610;2023-05-07T07:23:30;102217.03;;;11.85;70.77
74778;BME280;63298;53.164;8.610;2023-05-07T07:25:55;102207.28;;;11.89;70.15
74778;BME280;63298;53.164;8.610;2023-05-07T07:28:21;102204.09;;;11.92;70.22
74778;BME280;63298;53.164;8.610;2023-05-07T07:30:46;102207.69;;;12.05;69.91
74778;BME280;63298;53.164;8.610;2023-05-07T07:33:12;102208.31;;;12.14;70.42
74778;BME280;63298;53.164;8.610;2023-05-07T07:35:37;102214.91;;;12.20;69.69
74778;BME280;63298;53.164;8.610;2023-05-07T07:38:02;102212.59;;;12.23;69.53
74778;BME280;63298;53.164;8.610;2023-05-07T07:40:28;102215.34;;;12.30;69.68
74778;BME280;63298;53.164;8.610;2023-05-07T07:42:53;102211.50;;;12.31;69.36
74778;BME280;63298;53.164;8.610;2023-05-07T07:45:19;102217.03;;;12.31;69.48
74778;BME280;63298;53.164;8.610;2023-05-07T07:47:44;102220.22;;;12.34;69.37
74778;BME280;63298;53.164;8.610;2023-05-07T07:50:10;102225.34;;;12.37;69.23
74778;BME280;63298;53.164;8.610;2023-05-07T07:52:35;102227.69;;;12.40;69.33
74778;BME280;63298;53.164;8.610;2023-05-07T07:55:00;102222.34;;;12.45;68.93
74778;BME280;63298;53.164;8.610;2023-05-07T07:57:26;102223.59;;;12.49;68.77
74778;BME280;63298;53.164;8.610;2023-05-07T07:59:51;102214.91;;;12.52;68.22
74778;BME280;63298;53.164;8.610;2023-05-07T08:02:17;102234.47;;;12.51;68.64
74778;BME280;63298;53.164;8.610;2023-05-07T08:04:43;102226.38;;;12.49;68.68
74778;BME280;63298;53.164;8.610;2023-05-07T08:07:11;102228.94;;;12.44;68.59
74778;BME280;63298;53.164;8.610;2023-05-07T08:09:39;102237.44;;;12.49;68.57
74778;BME280;63298;53.164;8.610;2023-05-07T08:12:05;102234.03;;;12.54;68.04
74778;BME280;63298;53.164;8.610;2023-05-07T08:14:31;102246.81;;;12.55;68.14
74778;BME280;63298;53.164;8.610;2023-05-07T08:16:56;102241.69;;;12.59;68.11
74778;BME280;63298;53.164;8.610;2023-05-07T08:19:22;102229.34;;;12.68;68.25
74778;BME280;63298;53.164;8.610;2023-05-07T08:21:48;102233.56;;;12.77;67.78
74778;BME280;63298;53.164;8.610;2023-05-07T08:24:14;102234.19;;;12.85;67.72
74778;BME280;63298;53.164;8.610;2023-05-07T08:26:39;102236.75;;;12.87;67.83
74778;BME280;63298;53.164;8.610;2023-05-07T08:29:05;102240.78;;;12.91;67.28
74778;BME280;63298;53.164;8.610;2023-05-07T08:31:30;102244.78;;;12.95;67.34
74778;BME280;63298;53.164;8.610;2023-05-07T08:33:56;102232.66;;;12.96;67.53
74778;BME280;63298;53.164;8.610;2023-05-07T08:36:22;102241.56;;;13.05;67.42
74778;BME280;63298;53.164;8.610;2023-05-07T08:38:47;102248.59;;;13.07;67.29
74778;BME280;63298;53.164;8.610;2023-05-07T08:41:12;102241.75;;;13.10;66.86
74778;BME280;63298;53.164;8.610;2023-05-07T08:43:40;102240.69;;;13.11;66.79
74778;BME280;63298;53.164;8.610;2023-05-07T08:46:08;102242.81;;;13.09;67.01
74778;BME280;63298;53.164;8.610;2023-05-07T08:48:35;102240.28;;;13.14;66.84
74778;BME280;63298;53.164;8.610;2023-05-07T08:51:01;102248.34;;;13.22;66.53
74778;BME280;63298;53.164;8.610;2023-05-07T08:53:26;102248.75;;;13.25;66.65
74778;BME280;63298;53.164;8.610;2023-05-07T08:55:52;102244.47;;;13.29;66.59
74778;BME280;63298;53.164;8.610;2023-05-07T08:58:18;102245.13;;;13.31;66.35
74778;BME280;63298;53.164;8.610;2023-05-07T09:00:43;102247.84;;;13.38;66.28
74778;BME280;63298;53.164;8.610;2023-05-07T09:03:09;102248.19;;;13.48;66.90
74778;BME280;63298;53.164;8.610;2023-05-07T09:05:34;102238.84;;;13.43;66.49
74778;BME280;63298;53.164;8.610;2023-05-07T09:08:01;102243.31;;;13.50;66.28
74778;BME280;63298;53.164;8.610;2023-05-07T09:10:27;102237.94;;;13.55;66.50
74778;BME280;63298;53.164;8.610;2023-05-07T09:12:52;102237.66;;;13.63;66.01
74778;BME280;63298;53.164;8.610;2023-05-07T09:15:18;102247.66;;;13.71;66.18
74778;BME280;63298;53.164;8.610;2023-05-07T09:17:43;102233.69;;;13.84;65.68
74778;BME280;63298;53.164;8.610;2023-05-07T09:20:09;102248.19;;;13.86;65.89
74778;BME280;63298;53.164;8.610;2023-05-07T09:22:38;102243.25;;;13.88;64.55
74778;BME280;63298;53.164;8.610;2023-05-07T09:25:06;102246.88;;;13.89;65.07
74778;BME280;63298;53.164;8.610;2023-05-07T09:27:31;102247.34;;;13.86;65.05
74778;BME280;63298;53.164;8.610;2023-05-07T09:29:56;102242.47;;;13.81;64.90
74778;BME280;63298;53.164;8.610;2023-05-07T09:32:22;102249.25;;;13.85;65.07
74778;BME280;63298;53.164;8.610;2023-05-07T09:34:47;102242.41;;;13.88;64.82
74778;BME280;63298;53.164;8.610;2023-05-07T09:37:13;102249.50;;;13.77;65.32
74778;BME280;63298;53.164;8.610;2023-05-07T09:39:46;102230.09;;;13.77;65.38
74778;BME280;63298;53.164;8.610;2023-05-07T09:42:12;102238.22;;;13.78;65.38
74778;BME280;63298;53.164;8.610;2023-05-07T09:44:41;102234.16;;;13.81;65.27
74778;BME280;63298;53.164;8.610;2023-05-07T09:47:07;102237.66;;;13.95;64.99
74778;BME280;63298;53.164;8.610;2023-05-07T09:49:38;102245.31;;;13.99;65.47
74778;BME280;63298;53.164;8.610;2023-05-07T09:52:05;102237.00;;;13.99;65.26
74778;BME280;63298;53.164;8.610;2023-05-07T09:54:32;102236.09;;;14.05;65.34
74778;BME280;63298;53.164;8.610;2023-05-07T09:56:58;102233.06;;;14.07;65.14
74778;BME280;63298;53.164;8.610;2023-05-07T09:59:24;102221.53;;;14.10;65.24
74778;BME280;63298;53.164;8.610;2023-05-07T10:01:52;102221.28;;;14.11;65.49
74778;BME280;63298;53.164;8.610;2023-05-07T10:04:19;102227.59;;;14.25;64.72
74778;BME280;63298;53.164;8.610;2023-05-07T10:06:46;102221.63;;;14.21;64.88
74778;BME280;63298;53.164;8.610;2023-05-07T10:09:12;102229.75;;;14.23;64.72
74778;BME280;63298;53.164;8.610;2023-05-07T10:11:39;102209.28;;;14.17;64.78
74778;BME280;63298;53.164;8.610;2023-05-07T10:14:05;102225.03;;;14.23;64.82
74778;BME280;63298;53.164;8.610;2023-05-07T10:16:32;102216.75;;;14.17;65.51
74778;BME280;63298;53.164;8.610;2023-05-07T10:18:58;102229.34;;;14.19;65.07
74778;BME280;63298;53.164;8.610;2023-05-07T10:21:25;102233.19;;;14.18;65.18
74778;BME280;63298;53.164;8.610;2023-05-07T10:26:24;102231.06;;;14.20;65.01
74778;BME280;63298;53.164;8.610;2023-05-07T10:29:01;102241.00;;;14.28;65.27
74778;BME280;63298;53.164;8.610;2023-05-07T10:31:40;102246.78;;;14.26;65.04
74778;BME280;63298;53.164;8.610;2023-05-07T10:34:11;102235.28;;;14.23;65.04
74778;BME280;63298;53.164;8.610;2023-05-07T10:36:38;102245.72;;;14.27;65.09
74778;BME280;63298;53.164;8.610;2023-05-07T10:39:05;102236.47;;;14.34;64.36
74778;BME280;63298;53.164;8.610;2023-05-07T10:41:31;102245.59;;;14.41;64.52
74778;BME280;63298;53.164;8.610;2023-05-07T10:43:56;102236.63;;;14.45;64.75
74778;BME280;63298;53.164;8.610;2023-05-07T10:46:22;102231.63;;;14.54;64.42
74778;BME280;63298;53.164;8.610;2023-05-07T10:51:25;102241.91;;;14.90;63.91
74778;BME280;63298;53.164;8.610;2023-05-07T10:56:36;102233.09;;;15.11;62.98
74778;BME280;63298;53.164;8.610;2023-05-07T11:04:16;102238.44;;;15.61;62.27
74778;BME280;63298;53.164;8.610;2023-05-07T11:06:42;102233.50;;;15.63;61.98
74778;BME280;63298;53.164;8.610;2023-05-07T11:09:07;102245.75;;;15.73;61.46
74778;BME280;63298;53.164;8.610;2023-05-07T11:14:10;102246.84;;;15.72;61.42
74778;BME280;63298;53.164;8.610;2023-05-07T11:16:36;102232.06;;;15.72;61.53
74778;BME280;63298;53.164;8.610;2023-05-07T11:19:02;102223.38;;;15.80;61.87
74778;BME280;63298;53.164;8.610;2023-05-07T11:21:41;102236.25;;;15.92;60.77
74778;BME280;63298;53.164;8.610;2023-05-07T11:24:08;102232.38;;;15.93;61.27
74778;BME280;63298;53.164;8.610;2023-05-07T11:26:48;102229.34;;;15.95;60.02
74778;BME280;63298;53.164;8.610;2023-05-07T11:29:18;102240.16;;;16.15;61.09
74778;BME280;63298;53.164;8.610;2023-05-07T11:31:43;102225.75;;;16.06;61.05
74778;BME280;63298;53.164;8.610;2023-05-07T11:34:13;102225.38;;;16.14;60.78
74778;BME280;63298;53.164;8.610;2023-05-07T11:36:42;102218.22;;;16.18;60.75
74778;BME280;63298;53.164;8.610;2023-05-07T11:39:23;102232.31;;;16.35;60.18
74778;BME280;63298;53.164;8.610;2023-05-07T11:41:49;102235.47;;;16.50;60.69
74778;BME280;63298;53.164;8.610;2023-05-07T11:44:14;102239.00;;;16.57;60.34
74778;BME280;63298;53.164;8.610;2023-05-07T11:46:42;102237.28;;;16.56;60.18
74778;BME280;63298;53.164;8.610;2023-05-07T11:49:08;102248.53;;;16.50;60.16
74778;BME280;63298;53.164;8.610;2023-05-07T11:51:33;102246.84;;;16.49;60.28
74778;BME280;63298;53.164;8.610;2023-05-07T11:53:59;102233.28;;;16.40;59.82
74778;BME280;63298;53.164;8.610;2023-05-07T11:56:29;102218.25;;;16.30;60.22
74778;BME280;63298;53.164;8.610;2023-05-07T11:58:57;102233.06;;;16.42;59.71
74778;BME280;63298;53.164;8.610;2023-05-07T12:01:22;102232.94;;;16.37;59.65
74778;BME280;63298;53.164;8.610;2023-05-07T12:03:48;102235.44;;;16.38;59.85
74778;BME280;63298;53.164;8.610;2023-05-07T12:06:15;102228.94;;;16.33;60.15
74778;BME280;63298;53.164;8.610;2023-05-07T12:08:41;102203.59;;;16.34;59.78
74778;BME280;63298;53.164;8.610;2023-05-07T12:11:08;102223.97;;;16.47;60.43
74778;BME280;63298;53.164;8.610;2023-05-07T12:13:34;102231.59;;;16.51;60.08
74778;BME280;63298;53.164;8.610;2023-05-07T12:16:04;102227.84;;;16.46;59.75
74778;BME280;63298;53.164;8.610;2023-05-07T12:18:31;102215.00;;;16.45;60.19
74778;BME280;63298;53.164;8.610;2023-05-07T12:20:56;102211.84;;;16.53;60.09
74778;BME280;63298;53.164;8.610;2023-05-07T12:23:22;102219.25;;;16.59;59.95
74778;BME280;63298;53.164;8.610;2023-05-07T12:25:48;102213.69;;;16.59;60.02
74778;BME280;63298;53.164;8.610;2023-05-07T12:28:15;102214.28;;;16.61;60.17
74778;BME280;63298;53.164;8.610;2023-05-07T12:30:43;102216.59;;;16.75;59.82
74778;BME280;63298;53.164;8.610;2023-05-07T12:33:09;102211.47;;;16.84;59.54
74778;BME280;63298;53.164;8.610;2023-05-07T12:35:40;102221.75;;;17.07;59.67
74778;BME280;63298;53.164;8.610;2023-05-07T12:38:11;102215.88;;;17.20;59.21
74778;BME280;63298;53.164;8.610;2023-05-07T12:40:40;102236.25;;;17.49;59.31
74778;BME280;63298;53.164;8.610;2023-05-07T12:43:06;102205.22;;;17.45;58.48
74778;BME280;63298;53.164;8.610;2023-05-07T12:45:37;102223.84;;;17.56;58.40
74778;BME280;63298;53.164;8.610;2023-05-07T12:48:02;102204.91;;;17.58;58.47
74778;BME280;63298;53.164;8.610;2023-05-07T12:50:31;102237.97;;;17.78;57.93
74778;BME280;63298;53.164;8.610;2023-05-07T12:52:57;102230.34;;;17.74;57.96
74778;BME280;63298;53.164;8.610;2023-05-07T12:55:22;102240.16;;;17.76;57.82
74778;BME280;63298;53.164;8.610;2023-05-07T12:57:48;102221.28;;;17.66;57.79
74778;BME280;63298;53.164;8.610;2023-05-07T13:00:15;102227.91;;;17.77;57.82